Time;durP1;ratioP1;P1;durP2;ratioP2;P2;SDS_P1;SDS_P2;PMS_P1;PMS_P2;Temp;Humidity;BMP_temperature;BMP_pressure;BME280_temperature;BME280_humidity;BME280_pressure;Samples;Min_cycle;Max_cycle;Signal;HPM_P1;HPM_P2
2022/11/25 00:01:15;;;;;;;10.02;4.60;;;;;;;17.48;63.50;99424.88;4992946;28;20050;-75
2022/11/25 00:03:42;;;;;;;10.02;5.22;;;;;;;17.48;63.67;99425.69;4992567;28;20093;-75
2022/11/25 00:06:20;;;;;;;9.68;5.45;;;;;;;17.46;63.72;99435.47;4991778;28;20030;-76
2022/11/25 00:08:48;;;;;;;10.85;4.78;;;;;;;17.47;63.59;99441.63;4993079;28;20446;-76
2022/11/25 00:11:14;;;;;;;9.73;4.60;;;;;;;17.44;63.57;99432.91;4992972;28;20479;-75
2022/11/25 00:13:41;;;;;;;10.88;4.50;;;;;;;17.47;63.46;99431.06;4992963;28;20385;-75
2022/11/25 00:16:09;;;;;;;10.85;4.78;;;;;;;17.47;63.61;99437.19;4992912;28;20037;-75
2022/11/25 00:18:34;;;;;;;7.57;4.28;;;;;;;17.45;63.43;99426.69;4992597;28;20418;-75
2022/11/25 00:21:10;;;;;;;9.27;4.80;;;;;;;17.49;63.73;99434.50;4992782;28;20037;-75
2022/11/25 00:23:36;;;;;;;8.73;4.32;;;;;;;17.48;63.61;99430.97;4992681;28;20121;-75
2022/11/25 00:26:15;;;;;;;10.02;5.00;;;;;;;17.49;63.47;99439.75;4992986;28;20042;-75
2022/11/25 00:28:44;;;;;;;10.20;4.35;;;;;;;17.49;63.40;99429.22;4991418;28;20041;-75
2022/11/25 00:31:31;;;;;;;10.93;5.10;;;;;;;17.50;63.34;99441.47;4992925;28;20559;-75
2022/11/25 00:33:57;;;;;;;8.15;4.07;;;;;;;17.50;63.13;99433.56;4992846;28;20023;-75
2022/11/25 00:36:24;;;;;;;8.35;4.22;;;;;;;17.52;63.37;99442.25;4992753;28;20023;-76
2022/11/25 00:38:54;;;;;;;8.60;4.60;;;;;;;17.50;63.41;99437.06;4992660;28;20018;-75
2022/11/25 00:46:48;;;;;;;9.30;4.22;;;;;;;17.52;63.46;99450.16;4995983;28;20113;-75
2022/11/25 00:49:13;;;;;;;9.00;4.35;;;;;;;17.52;63.18;99450.16;4996172;28;20490;-75
2022/11/25 00:51:39;;;;;;;10.20;4.25;;;;;;;17.53;62.96;99446.63;4994359;28;20105;-75
2022/11/25 00:54:05;;;;;;;9.18;4.72;;;;;;;17.53;63.38;99447.44;4996272;28;20149;-75
2022/11/25 00:56:30;;;;;;;7.15;4.15;;;;;;;17.55;63.01;99455.31;4995953;28;20034;-75
2022/11/25 00:58:56;;;;;;;10.57;4.32;;;;;;;17.58;62.86;99449.91;4996007;28;20050;-75
2022/11/25 01:01:21;;;;;;;9.68;4.97;;;;;;;17.55;63.28;99450.91;4995610;28;20092;-76
2022/11/25 01:03:51;;;;;;;9.57;4.60;;;;;;;17.56;63.01;99462.28;4995605;28;20524;-75
2022/11/25 01:06:16;;;;;;;8.07;3.83;;;;;;;17.56;63.00;99457.88;4994037;28;20031;-75
2022/11/25 01:08:42;;;;;;;11.63;4.78;;;;;;;17.58;63.07;99455.19;4995958;28;20034;-75
2022/11/25 01:11:11;;;;;;;9.48;4.07;;;;;;;17.57;62.91;99453.44;4996027;28;20076;-75
2022/11/25 01:13:36;;;;;;;8.95;4.32;;;;;;;17.57;62.97;99456.94;4995841;28;20068;-74
2022/11/25 01:16:06;;;;;;;8.10;3.65;;;;;;;17.59;62.89;99462.16;4995558;28;20152;-75
2022/11/25 01:18:32;;;;;;;8.55;3.80;;;;;;;17.60;63.15;99469.16;4995899;28;20027;-75
2022/11/25 01:21:11;;;;;;;9.32;4.40;;;;;;;17.59;62.86;99459.53;4995585;28;20033;-75
2022/11/25 01:23:37;;;;;;;11.38;4.25;;;;;;;17.61;62.94;99469.97;4995288;28;20046;-75
2022/11/25 01:26:04;;;;;;;8.88;3.95;;;;;;;17.59;63.18;99470.06;4995673;28;20037;-75
2022/11/25 01:28:30;;;;;;;9.02;4.22;;;;;;;17.59;63.04;99462.16;4995275;28;20030;-75
2022/11/25 01:31:04;;;;;;;8.98;3.80;;;;;;;17.60;62.94;99463.00;4995027;28;20495;-75
2022/11/25 01:33:31;;;;;;;9.57;4.00;;;;;;;17.59;62.96;99456.88;4995513;28;20037;-75
2022/11/25 01:36:07;;;;;;;9.13;3.97;;;;;;;17.61;62.72;99465.56;4995292;28;20022;-75
2022/11/25 01:38:34;;;;;;;8.20;3.58;;;;;;;17.61;62.80;99465.56;4995338;28;20168;-75
2022/11/25 01:41:00;;;;;;;7.68;3.60;;;;;;;17.61;63.00;99473.50;4995099;28;20030;-75
2022/11/25 01:43:26;;;;;;;7.35;3.92;;;;;;;17.61;63.06;99470.84;4995148;28;20057;-76
2022/11/25 01:45:56;;;;;;;7.30;3.97;;;;;;;17.61;62.92;99470.84;4994935;28;20372;-75
2022/11/25 01:48:31;;;;;;;7.40;3.60;;;;;;;17.62;62.89;99485.75;4995053;28;20164;-75
2022/11/25 01:50:57;;;;;;;8.20;4.05;;;;;;;17.64;62.77;99480.41;4994938;28;20034;-75
2022/11/25 01:53:23;;;;;;;10.40;3.85;;;;;;;17.65;62.94;99482.13;4994417;28;20030;-74
2022/11/25 01:55:57;;;;;;;10.20;4.43;;;;;;;17.63;62.65;99483.97;4995072;28;20066;-75
2022/11/25 01:58:30;;;;;;;6.50;3.60;;;;;;;17.66;62.74;99487.31;4994812;28;20475;-75
2022/11/25 02:00:55;;;;;;;8.70;4.03;;;;;;;17.65;62.51;99482.97;4994795;28;20501;-75
2022/11/25 02:03:26;;;;;;;7.80;4.03;;;;;;;17.65;62.44;99488.25;4994905;28;20030;-75
2022/11/25 02:06:02;;;;;;;9.10;4.18;;;;;;;17.66;62.78;99487.31;4994678;28;20038;-75
2022/11/25 02:08:28;;;;;;;8.02;4.07;;;;;;;17.67;62.70;99489.03;4994727;28;20022;-75
2022/11/25 02:10:54;;;;;;;7.18;3.50;;;;;;;17.69;62.74;99500.34;4994697;28;20479;-75
2022/11/25 02:13:22;;;;;;;7.85;3.75;;;;;;;17.69;62.64;99492.44;4994516;28;20429;-76
2022/11/25 02:15:48;;;;;;;7.22;3.90;;;;;;;17.69;62.63;99495.09;4994482;28;20030;-75
2022/11/25 02:18:13;;;;;;;8.05;3.78;;;;;;;17.69;62.61;99496.88;4994508;28;20036;-75
2022/11/25 02:20:39;;;;;;;8.50;4.22;;;;;;;17.71;62.26;99493.25;4994389;28;20054;-75
2022/11/25 02:23:24;;;;;;;9.18;4.30;;;;;;;17.73;62.28;99492.31;4994221;28;20046;-75
2022/11/25 02:25:50;;;;;;;8.07;3.58;;;;;;;17.74;62.11;99494.03;4994455;28;20038;-75
2022/11/25 02:28:22;;;;;;;8.65;3.67;;;;;;;17.74;62.20;99492.25;4993813;28;20177;-75
2022/11/25 02:30:48;;;;;;;7.13;3.60;;;;;;;17.75;62.04;99487.81;4994432;28;20041;-75
2022/11/25 02:33:14;;;;;;;8.32;3.70;;;;;;;17.73;62.06;99489.69;4994382;28;20104;-75
2022/11/25 02:36:07;;;;;;;9.55;3.70;;;;;;;17.72;62.05;99488.81;4994268;28;20053;-75
2022/11/25 02:38:46;;;;;;;7.82;3.72;;;;;;;17.69;62.50;99495.09;4991038;28;20037;-75
2022/11/25 02:41:29;;;;;;;7.72;3.97;;;;;;;17.70;62.25;99502.09;4994000;28;20855;-75
2022/11/25 02:43:55;;;;;;;10.38;3.75;;;;;;;17.74;62.26;99496.66;4993684;28;20494;-75
2022/11/25 02:46:23;;;;;;;8.80;4.03;;;;;;;17.71;62.23;99493.25;4993984;28;20109;-75
2022/11/25 02:48:51;;;;;;;8.52;3.95;;;;;;;17.73;61.84;99489.69;4993558;28;20037;-75
2022/11/25 02:51:19;;;;;;;7.60;3.80;;;;;;;17.69;62.09;99497.72;4993959;28;20503;-75
2022/11/25 02:53:44;;;;;;;9.35;4.05;;;;;;;17.70;62.14;99491.53;4993943;28;20491;-75
2022/11/25 02:56:12;;;;;;;8.25;3.50;;;;;;;17.74;62.16;99497.53;4993960;28;20033;-75
2022/11/25 02:58:37;;;;;;;9.05;4.10;;;;;;;17.70;62.20;99496.81;4991847;28;20521;-75
2022/11/25 03:01:03;;;;;;;7.97;3.72;;;;;;;17.73;61.94;99494.97;4993432;28;20026;-74
2022/11/25 03:03:28;;;;;;;9.85;4.43;;;;;;;17.69;62.07;99488.97;4993674;28;20375;-75
2022/11/25 03:05:53;;;;;;;7.47;3.58;;;;;;;17.69;61.80;99500.34;4992938;28;20018;-75
2022/11/25 03:08:19;;;;;;;8.13;3.70;;;;;;;17.69;61.85;99495.09;4993753;28;20364;-75
2022/11/25 03:10:44;;;;;;;7.38;3.95;;;;;;;17.70;62.06;99486.25;4993688;28;20094;-75
2022/11/25 03:13:10;;;;;;;8.45;4.03;;;;;;;17.68;61.80;99496.03;4993328;28;20057;-74
2022/11/25 03:15:35;;;;;;;7.38;3.65;;;;;;;17.69;61.79;99494.25;4993587;28;20036;-75
2022/11/25 03:18:03;;;;;;;5.95;3.33;;;;;;;17.68;62.09;99496.03;4993661;28;20041;-75
2022/11/25 03:20:29;;;;;;;8.40;3.63;;;;;;;17.70;61.96;99499.47;4993468;28;20022;-75
2022/11/25 03:22:54;;;;;;;8.40;3.83;;;;;;;17.67;61.89;99491.66;4991941;28;20116;-75
2022/11/25 03:25:20;;;;;;;8.88;4.40;;;;;;;17.66;62.06;99489.97;4993542;28;20023;-75
2022/11/25 03:27:46;;;;;;;7.80;4.07;;;;;;;17.64;62.04;99491.84;4992978;28;20022;-75
2022/11/25 03:30:15;;;;;;;8.82;3.65;;;;;;;17.65;61.72;99497.94;4993482;28;20023;-75
2022/11/25 03:32:41;;;;;;;7.50;3.72;;;;;;;17.64;62.02;99496.25;4993380;28;20027;-75
2022/11/25 03:35:08;;;;;;;6.90;3.50;;;;;;;17.64;61.96;99497.09;4993401;28;20034;-75
2022/11/25 03:37:34;;;;;;;6.65;3.47;;;;;;;17.64;61.91;99496.25;4993245;28;20033;-75
2022/11/25 03:39:59;;;;;;;6.68;3.45;;;;;;;17.65;61.76;99493.53;4993234;28;20030;-75
2022/11/25 03:42:25;;;;;;;8.77;3.80;;;;;;;17.63;61.75;99495.38;4993267;28;20084;-75
2022/11/25 03:44:50;;;;;;;8.40;3.58;;;;;;;17.64;61.90;99491.84;4993138;28;20030;-74
2022/11/25 03:47:16;;;;;;;6.60;3.55;;;;;;;17.64;61.82;99486.56;4993258;28;20057;-75
2022/11/25 03:49:41;;;;;;;8.57;3.75;;;;;;;17.61;62.03;99491.97;4991802;28;20026;-75
2022/11/25 03:52:06;;;;;;;7.00;3.72;;;;;;;17.62;62.00;99493.66;4993233;28;20038;-74
2022/11/25 03:54:32;;;;;;;6.40;3.35;;;;;;;17.63;61.80;99483.97;4992855;28;20030;-74
2022/11/25 03:56:57;;;;;;;6.22;3.28;;;;;;;17.63;61.95;99484.81;4993219;28;20034;-75
2022/11/25 03:59:23;;;;;;;6.82;3.42;;;;;;;17.59;61.87;99483.28;4993256;28;20037;-75
2022/11/25 04:01:48;;;;;;;6.75;3.45;;;;;;;17.60;61.69;99479.69;4992815;28;20038;-74
2022/11/25 04:04:13;;;;;;;7.25;3.67;;;;;;;17.58;62.04;99481.56;4993052;28;20034;-75
2022/11/25 04:06:39;;;;;;;7.43;3.42;;;;;;;17.58;61.57;99478.94;4993063;28;20037;-75
2022/11/25 04:09:05;;;;;;;8.75;3.58;;;;;;;17.59;61.91;99480.63;4992795;28;20034;-74
2022/11/25 04:14:14;;;;;;;7.00;3.53;;;;;;;17.57;61.75;99485.09;4992957;28;20033;-75
2022/11/25 04:16:40;;;;;;;7.78;3.85;;;;;;;17.55;61.78;99492.25;4994582;28;20034;-75
2022/11/25 04:19:05;;;;;;;6.85;3.58;;;;;;;17.52;61.77;99487.97;4996728;28;20050;-74
2022/11/25 04:21:30;;;;;;;6.15;3.33;;;;;;;17.54;61.60;99486.09;4995361;28;20034;-75
2022/11/25 04:23:56;;;;;;;8.45;3.45;;;;;;;17.56;61.79;99486.91;4996247;28;20113;-75
2022/11/25 04:26:21;;;;;;;6.78;3.30;;;;;;;17.51;62.03;99491.53;4996570;28;20046;-75
2022/11/25 04:28:47;;;;;;;6.75;3.70;;;;;;;17.51;61.95;99483.63;4996736;28;20061;-75
2022/11/25 04:31:12;;;;;;;6.78;3.42;;;;;;;17.52;61.96;99492.38;4996589;28;20049;-75
2022/11/25 04:33:37;;;;;;;6.22;3.33;;;;;;;17.53;61.73;99499.38;4996412;28;20493;-75
2022/11/25 04:36:03;;;;;;;6.78;3.67;;;;;;;17.53;61.78;99500.22;4996574;28;20038;-75
2022/11/25 04:38:29;;;;;;;6.50;3.40;;;;;;;17.50;61.98;99499.50;4996159;28;20482;-75
2022/11/25 04:40:54;;;;;;;6.65;3.47;;;;;;;17.51;62.02;99503.84;4996137;28;20038;-75
2022/11/25 04:43:20;;;;;;;7.78;3.65;;;;;;;17.49;61.71;99500.44;4995938;28;20057;-75
2022/11/25 04:45:47;;;;;;;5.18;3.20;;;;;;;17.49;61.83;99500.44;4996371;28;20037;-75
2022/11/25 04:48:12;;;;;;;6.18;3.38;;;;;;;17.49;61.99;99495.16;4996287;28;20022;-75
2022/11/25 04:50:38;;;;;;;6.35;3.33;;;;;;;17.44;62.01;99500.66;4996052;28;20049;-74
2022/11/25 04:53:03;;;;;;;7.45;3.63;;;;;;;17.47;61.79;99502.31;4995614;28;20116;-75
2022/11/25 04:55:29;;;;;;;6.05;2.67;;;;;;;17.48;61.77;99504.00;4996183;28;20029;-75
2022/11/25 04:57:54;;;;;;;7.18;3.45;;;;;;;17.45;61.80;99500.56;4996110;28;20022;-75
2022/11/25 05:00:20;;;;;;;7.28;3.85;;;;;;;17.46;61.81;99506.72;4995740;28;20113;-75
2022/11/25 05:02:46;;;;;;;6.15;3.08;;;;;;;17.43;61.62;99507.72;4995613;28;20057;-75
2022/11/25 05:05:11;;;;;;;7.85;3.92;;;;;;;17.42;61.66;99513.91;4995871;28;20026;-75
2022/11/25 05:07:37;;;;;;;7.22;3.35;;;;;;;17.42;61.71;99516.56;4995391;28;20113;-75
2022/11/25 05:10:04;;;;;;;5.28;3.15;;;;;;;17.42;61.73;99513.03;4996008;28;20089;-75
2022/11/25 05:12:30;;;;;;;6.50;3.33;;;;;;;17.40;61.79;99515.78;4995703;28;20433;-75
2022/11/25 05:14:56;;;;;;;6.05;3.38;;;;;;;17.41;62.07;99517.47;4995846;28;20030;-75
2022/11/25 05:17:24;;;;;;;6.32;3.03;;;;;;;17.42;61.70;99519.19;4995700;28;20026;-75
2022/11/25 05:19:49;;;;;;;5.70;3.05;;;;;;;17.41;62.00;99516.63;4995548;28;20023;-75
2022/11/25 05:22:21;;;;;;;7.95;3.50;;;;;;;17.41;61.67;99512.19;4995387;28;20489;-75
2022/11/25 05:24:46;;;;;;;6.30;3.00;;;;;;;17.43;61.67;99526.16;4995517;28;20053;-75
2022/11/25 05:27:12;;;;;;;6.72;3.05;;;;;;;17.44;62.00;99522.59;4995312;28;20105;-75
2022/11/25 05:29:37;;;;;;;6.90;3.10;;;;;;;17.39;61.83;99518.47;4995016;28;20054;-75
2022/11/25 05:32:04;;;;;;;6.03;2.85;;;;;;;17.42;61.94;99529.75;4995572;28;20019;-75
2022/11/25 05:34:30;;;;;;;6.60;3.10;;;;;;;17.39;61.79;99519.31;4995573;28;20072;-76
2022/11/25 05:36:55;;;;;;;6.90;3.13;;;;;;;17.39;61.78;99519.31;4995179;28;20101;-75
2022/11/25 05:39:21;;;;;;;7.80;3.10;;;;;;;17.40;62.13;99533.38;4994106;28;20029;-75
2022/11/25 05:41:46;;;;;;;7.30;3.65;;;;;;;17.40;62.40;99536.88;4995318;28;20033;-74
2022/11/25 05:44:12;;;;;;;10.90;3.90;;;;;;;17.39;63.11;99545.69;4994794;28;20034;-73
2022/11/25 05:46:37;;;;;;;9.90;4.40;;;;;;;17.40;63.72;99547.44;4995249;28;20022;-73
2022/11/25 05:49:02;;;;;;;12.75;4.28;;;;;;;17.43;64.03;99546.41;4995255;28;20506;-73
2022/11/25 05:51:28;;;;;;;13.07;4.57;;;;;;;17.42;64.25;99564.03;4994851;28;20471;-73
2022/11/25 05:53:55;;;;;;;13.15;4.25;;;;;;;17.42;64.39;99558.75;4995274;28;20402;-74
2022/11/25 05:56:20;;;;;;;9.20;4.68;;;;;;;17.44;63.87;99558.69;4995088;28;20030;-72
2022/11/25 05:58:46;;;;;;;11.88;4.60;;;;;;;17.45;63.31;99555.13;4993769;28;20030;-72
2022/11/25 06:01:13;;;;;;;8.93;4.00;;;;;;;17.47;63.08;99547.16;4992858;28;20026;-68
2022/11/25 06:03:40;;;;;;;8.57;4.07;;;;;;;17.47;62.91;99552.44;4994210;28;20026;-67
2022/11/25 06:06:06;;;;;;;9.50;4.13;;;;;;;17.44;63.10;99559.53;4994002;28;20022;-68
2022/11/25 06:08:33;;;;;;;9.43;3.80;;;;;;;17.43;62.88;99568.38;4994091;28;20478;-69
2022/11/25 06:10:58;;;;;;;9.50;3.58;;;;;;;17.40;62.77;99571.16;4994040;28;20457;-68
2022/11/25 06:13:24;;;;;;;12.80;4.57;;;;;;;17.41;62.54;99570.25;4994159;28;20521;-68
2022/11/25 06:15:50;;;;;;;9.68;3.95;;;;;;;17.43;62.59;99571.00;4990010;28;20053;-69
2022/11/25 06:18:16;;;;;;;9.05;3.55;;;;;;;17.39;62.61;99561.50;4993047;28;20022;-69
2022/11/25 06:20:42;;;;;;;9.73;4.10;;;;;;;17.42;62.31;99571.94;4993310;28;20027;-69
2022/11/25 06:23:08;;;;;;;11.93;4.28;;;;;;;17.42;62.24;99574.59;4992152;28;20050;-69
2022/11/25 06:25:35;;;;;;;10.27;3.95;;;;;;;17.43;62.31;99572.78;4992754;28;20112;-68
2022/11/25 06:28:02;;;;;;;7.38;3.88;;;;;;;17.43;61.98;99567.50;4993146;28;20041;-69
2022/11/25 06:30:27;;;;;;;9.35;4.10;;;;;;;17.39;62.26;99565.94;4990914;28;20038;-68
2022/11/25 06:32:53;;;;;;;7.53;4.38;;;;;;;17.39;62.19;99577.34;4993415;28;20105;-68
2022/11/25 06:35:19;;;;;;;8.85;4.15;;;;;;;17.39;61.57;99577.34;4991003;28;20113;-68
2022/11/25 06:37:44;;;;;;;8.88;4.10;;;;;;;17.39;61.80;99582.63;4992824;28;20038;-69
2022/11/25 06:40:10;;;;;;;9.88;4.18;;;;;;;17.39;61.70;99587.91;4993158;28;20034;-69
2022/11/25 06:42:37;;;;;;;9.75;4.05;;;;;;;17.38;61.64;99596.75;4992804;28;20034;-69
2022/11/25 06:45:03;;;;;;;11.98;4.57;;;;;;;17.37;61.42;99600.31;4994016;28;20394;-68
2022/11/25 06:47:29;;;;;;;7.93;3.88;;;;;;;17.38;61.35;99604.66;4994057;28;20118;-69
2022/11/25 06:49:54;;;;;;;9.23;4.03;;;;;;;17.37;61.46;99616.13;4993530;28;20027;-68
2022/11/25 06:52:20;;;;;;;10.30;4.25;;;;;;;17.35;61.45;99615.34;4992748;28;20470;-67
2022/11/25 06:54:45;;;;;;;7.60;3.80;;;;;;;17.35;61.53;99618.00;4992574;28;20049;-68
2022/11/25 06:57:11;;;;;;;8.85;5.03;;;;;;;17.32;61.67;99628.66;4993975;28;20026;-68
2022/11/25 06:59:37;;;;;;;8.27;3.65;;;;;;;17.35;61.52;99631.19;4993782;28;20042;-68
2022/11/25 07:02:03;;;;;;;7.68;3.85;;;;;;;17.35;61.44;99640.84;4993316;28;20057;-68
2022/11/25 07:04:29;;;;;;;9.35;3.83;;;;;;;17.32;61.49;99636.56;4993459;28;20034;-68
2022/11/25 07:06:54;;;;;;;7.35;4.13;;;;;;;17.33;61.28;99648.00;4993641;28;20022;-69
2022/11/25 07:09:21;;;;;;;7.78;3.95;;;;;;;17.33;61.33;99640.91;4993843;28;20084;-68
2022/11/25 07:11:47;;;;;;;8.90;3.85;;;;;;;17.30;61.44;99654.25;4993597;28;20035;-68
2022/11/25 07:14:14;;;;;;;7.70;3.97;;;;;;;17.29;61.65;99660.44;4993831;28;20470;-68
2022/11/25 07:16:42;;;;;;;8.73;3.78;;;;;;;17.32;61.19;99660.31;4993684;28;20034;-68
2022/11/25 07:19:10;;;;;;;10.20;3.92;;;;;;;17.27;61.47;99663.16;4993215;28;20479;-68
2022/11/25 07:21:36;;;;;;;7.40;4.10;;;;;;;17.28;61.16;99661.34;4993433;28;20042;-68
2022/11/25 07:24:05;;;;;;;8.40;4.07;;;;;;;17.29;61.07;99668.38;4993338;28;20077;-68
2022/11/25 07:26:33;;;;;;;7.05;3.65;;;;;;;17.29;61.18;99665.72;4993308;28;20023;-68
2022/11/25 07:29:02;;;;;;;8.32;3.65;;;;;;;17.27;61.47;99667.56;4993344;28;20019;-68
2022/11/25 07:31:29;;;;;;;9.50;4.05;;;;;;;17.27;61.09;99672.81;4993282;28;20549;-68
2022/11/25 07:34:00;;;;;;;6.63;3.53;;;;;;;17.25;61.20;99674.69;4993129;28;20039;-67
2022/11/25 07:36:28;;;;;;;7.55;3.80;;;;;;;17.26;61.17;99671.13;4993278;28;20037;-68
2022/11/25 07:38:53;;;;;;;8.50;3.30;;;;;;;17.25;61.49;99682.59;4993429;28;20035;-68
2022/11/25 07:41:21;;;;;;;11.15;3.97;;;;;;;17.26;61.03;99681.66;4991964;28;20398;-68
2022/11/25 07:43:52;;;;;;;6.78;3.67;;;;;;;17.22;61.42;99696.75;4993281;28;20433;-67
2022/11/25 07:46:24;;;;;;;7.97;3.90;;;;;;;17.23;61.31;99697.63;4993226;28;20030;-68
2022/11/25 07:48:50;;;;;;;8.95;3.63;;;;;;;17.25;61.13;99706.31;4991612;28;20027;-68
2022/11/25 07:51:19;;;;;;;7.07;3.65;;;;;;;17.22;61.43;99711.72;4994195;28;20577;-69
2022/11/25 07:53:45;;;;;;;8.07;3.72;;;;;;;17.22;61.18;99711.72;4997228;28;20045;-67
2022/11/25 07:56:11;;;;;;;9.10;3.58;;;;;;;17.23;61.27;99718.72;4997316;28;20022;-68
2022/11/25 07:58:37;;;;;;;7.30;4.00;;;;;;;17.23;61.15;99716.09;4997236;28;20018;-68
2022/11/25 08:01:06;;;;;;;6.47;3.38;;;;;;;17.23;61.12;99718.72;4996765;28;20026;-68
2022/11/25 08:03:34;;;;;;;6.65;3.78;;;;;;;17.23;61.05;99729.28;4997194;28;20076;-68
2022/11/25 08:06:01;;;;;;;7.85;3.67;;;;;;;17.21;60.98;99734.59;4997078;28;20030;-68
2022/11/25 08:08:27;;;;;;;7.80;3.65;;;;;;;17.20;61.14;99732.03;4997079;28;20034;-67
2022/11/25 08:10:52;;;;;;;8.30;3.47;;;;;;;17.18;60.99;99737.34;4997042;28;20037;-67
2022/11/25 08:13:17;;;;;;;6.88;3.45;;;;;;;17.20;61.25;99755.75;4996961;28;20186;-68
2022/11/25 08:15:43;;;;;;;8.52;3.75;;;;;;;17.18;61.19;99759.31;4996574;28;20033;-68
2022/11/25 08:18:08;;;;;;;7.95;3.40;;;;;;;17.21;60.97;99773.28;4996936;28;20030;-68
2022/11/25 08:20:33;;;;;;;7.78;3.80;;;;;;;17.17;61.10;99770.81;4996785;28;20057;-68
2022/11/25 08:22:59;;;;;;;7.30;3.60;;;;;;;17.18;61.08;99761.97;4996580;28;20499;-68
2022/11/25 08:25:25;;;;;;;6.90;3.60;;;;;;;17.17;61.16;99767.28;4996522;28;20054;-67
2022/11/25 08:27:51;;;;;;;7.10;3.20;;;;;;;17.17;61.01;99765.53;4996587;28;20031;-68
2022/11/25 08:30:17;;;;;;;7.60;3.50;;;;;;;17.13;61.09;99766.56;4996199;28;20433;-68
2022/11/25 08:32:42;;;;;;;6.93;3.20;;;;;;;17.10;61.09;99782.47;4996596;28;20026;-69
2022/11/25 08:35:08;;;;;;;6.93;3.47;;;;;;;17.07;61.22;99793.16;4996502;28;20073;-68
2022/11/25 08:37:33;;;;;;;7.57;3.50;;;;;;;17.08;61.45;99789.59;4996603;28;20065;-69
2022/11/25 08:39:59;;;;;;;7.53;3.40;;;;;;;17.12;61.11;99796.50;4996379;28;20029;-68
2022/11/25 08:42:24;;;;;;;6.70;3.15;;;;;;;17.10;61.23;99800.09;4996304;28;20582;-67
2022/11/25 08:44:54;;;;;;;8.20;2.97;;;;;;;17.08;61.00;99800.16;4995587;28;20030;-68
2022/11/25 08:47:21;;;;;;;6.28;2.88;;;;;;;17.05;61.30;99810.84;4996441;28;20525;-68
2022/11/25 08:49:50;;;;;;;7.07;3.08;;;;;;;17.03;61.08;99812.66;4996160;28;20023;-68
2022/11/25 08:52:15;;;;;;;7.47;2.75;;;;;;;17.00;61.41;99823.31;4996246;28;20042;-68
2022/11/25 08:54:41;;;;;;;5.75;3.05;;;;;;;16.99;61.06;99819.78;4996073;28;20022;-67
2022/11/25 08:57:06;;;;;;;6.68;2.80;;;;;;;16.98;61.47;99814.56;4994845;28;20438;-68
2022/11/25 08:59:31;;;;;;;5.75;2.80;;;;;;;16.98;61.49;99810.16;4994524;28;20390;-67
2022/11/25 09:01:57;;;;;;;6.13;3.00;;;;;;;16.98;61.29;99811.94;4995159;28;20474;-68
2022/11/25 09:04:22;;;;;;;6.03;2.65;;;;;;;16.96;61.38;99816.41;4994957;28;20049;-68
2022/11/25 09:06:48;;;;;;;5.60;2.80;;;;;;;16.96;61.63;99832.25;4995944;28;20061;-68
2022/11/25 09:09:13;;;;;;;5.93;2.70;;;;;;;16.95;61.26;99835.78;4994631;28;20172;-68
2022/11/25 09:11:39;;;;;;;5.88;2.53;;;;;;;16.96;61.29;99848.06;4995873;28;20149;-68
2022/11/25 09:14:04;;;;;;;7.55;2.80;;;;;;;16.95;61.60;99862.16;4995471;28;20041;-68
2022/11/25 09:16:29;;;;;;;4.60;2.40;;;;;;;16.94;61.66;99855.19;4994487;28;20034;-68
2022/11/25 09:18:55;;;;;;;6.18;2.60;;;;;;;16.91;61.68;99867.53;4995741;28;20034;-68
2022/11/25 09:21:20;;;;;;;5.75;2.63;;;;;;;16.92;61.64;99881.59;4995684;28;20030;-68
2022/11/25 09:23:49;;;;;;;4.60;2.50;;;;;;;16.92;61.28;99885.06;4995428;28;20050;-68
2022/11/25 09:26:20;;;;;;;6.30;2.70;;;;;;;16.94;61.48;99889.44;4995760;28;20109;-67
2022/11/25 09:28:45;;;;;;;5.35;2.40;;;;;;;16.91;61.71;99888.63;4975819;28;20364;-68
2022/11/25 09:31:11;;;;;;;5.43;2.55;;;;;;;16.89;61.57;99895.72;4976085;28;20033;-68
2022/11/25 09:33:36;;;;;;;5.05;2.38;;;;;;;16.88;61.37;99909.84;4976030;28;20023;-68
2022/11/25 09:36:03;;;;;;;4.78;2.38;;;;;;;16.90;61.38;99910.63;4975953;28;20027;-68
2022/11/25 09:38:28;;;;;;;4.32;2.00;;;;;;;16.90;61.43;99926.44;4975974;28;20098;-68
2022/11/25 09:47:54;;;;;;;5.53;2.50;;;;;;;16.91;61.43;99946.63;4976280;28;20037;-68
2022/11/25 09:50:31;;;;;;;6.97;2.80;;;;;;;16.87;61.54;99945.03;4967075;28;20490;-68
2022/11/25 09:53:22;;;;;;;4.50;2.30;;;;;;;16.85;61.69;99949.47;4976573;28;20117;-68
2022/11/25 09:55:53;;;;;;;4.93;2.35;;;;;;;16.88;61.66;99949.38;4976033;28;20035;-68
2022/11/25 09:58:37;;;;;;;4.97;2.00;;;;;;;16.88;61.59;99966.97;4975875;28;20396;-68
2022/11/25 10:01:16;;;;;;;5.05;2.20;;;;;;;16.88;61.65;99973.09;4975577;28;20062;-67
2022/11/25 10:03:51;;;;;;;4.65;2.25;;;;;;;16.90;61.55;99970.38;4975529;28;20078;-67
2022/11/25 10:06:23;;;;;;;5.70;2.47;;;;;;;16.90;61.75;99979.16;4975446;28;20098;-68
2022/11/25 10:08:57;;;;;;;4.35;2.10;;;;;;;16.91;61.21;99980.03;4974179;28;20380;-68
2022/11/25 10:11:39;;;;;;;5.45;1.85;;;;;;;16.90;61.59;99986.19;4975338;28;20045;-67
2022/11/25 10:14:41;;;;;;;6.45;2.50;;;;;;;16.87;61.60;99989.84;4974915;28;20402;-68
2022/11/25 10:17:25;;;;;;;4.75;2.10;;;;;;;16.89;61.21;99998.53;4975321;28;20035;-68
2022/11/25 10:20:00;;;;;;;5.82;2.40;;;;;;;16.87;61.39;100005.66;4975051;28;20105;-68
2022/11/25 10:22:31;;;;;;;5.33;1.80;;;;;;;16.89;61.61;100006.44;4975184;28;20034;-68
2022/11/25 10:25:00;;;;;;;3.88;2.10;;;;;;;16.89;61.43;100006.44;4974909;28;20298;-67
2022/11/25 10:27:46;;;;;;;4.65;1.95;;;;;;;16.90;61.68;100002.91;4983791;28;20089;-67
2022/11/25 10:30:14;;;;;;;6.13;2.38;;;;;;;16.90;61.47;100002.91;4993078;28;20410;-68
2022/11/25 10:32:45;;;;;;;4.10;2.30;;;;;;;16.89;61.64;100016.13;4994463;28;20026;-67
2022/11/25 10:35:23;;;;;;;6.82;2.53;;;;;;;16.89;61.28;100024.03;4994221;28;20019;-69
2022/11/25 10:37:53;;;;;;;4.72;1.98;;;;;;;16.87;61.61;100028.50;4993627;28;20044;-68
2022/11/25 10:40:19;;;;;;;3.72;1.70;;;;;;;16.85;61.25;100032.97;4994138;28;20084;-68
2022/11/25 10:42:45;;;;;;;6.32;1.95;;;;;;;16.86;61.55;100038.16;4993597;28;20023;-68
2022/11/25 10:45:11;;;;;;;4.95;1.92;;;;;;;16.86;61.65;100038.16;4994066;28;20030;-68
2022/11/25 10:48:08;;;;;;;4.35;2.10;;;;;;;16.88;61.63;100046.91;4994110;28;20027;-68
2022/11/25 10:50:39;;;;;;;4.25;1.95;;;;;;;16.87;61.42;100055.72;4993931;28;20169;-68
2022/11/25 10:53:24;;;;;;;3.90;1.95;;;;;;;16.92;61.39;100053.78;4993835;28;20026;-67
2022/11/25 10:56:03;;;;;;;3.83;1.67;;;;;;;16.92;61.24;100043.22;4993584;28;20041;-67
2022/11/25 10:58:28;;;;;;;6.88;2.35;;;;;;;16.95;61.32;100041.41;4993843;28;20026;-69
2022/11/25 11:01:02;;;;;;;4.50;1.77;;;;;;;16.92;61.45;100045.88;4993667;28;20031;-68
2022/11/25 11:03:28;;;;;;;2.92;1.52;;;;;;;16.95;61.10;100038.78;4993450;28;20077;-69
2022/11/25 11:05:54;;;;;;;3.55;1.65;;;;;;;16.94;61.26;100042.34;4992378;28;20034;-68
2022/11/25 11:08:27;;;;;;;3.78;1.85;;;;;;;16.92;60.99;100043.22;4993637;28;20486;-68
2022/11/25 11:11:20;;;;;;;3.65;1.65;;;;;;;16.94;61.31;100050.25;4993310;28;20029;-67
2022/11/25 11:13:46;;;;;;;5.90;1.95;;;;;;;16.93;61.40;100049.38;4987387;28;20038;-68
2022/11/25 11:16:21;;;;;;;3.97;1.98;;;;;;;16.94;61.07;100055.53;4993799;28;20109;-67
2022/11/25 11:18:46;;;;;;;4.32;2.20;;;;;;;16.95;61.29;100065.16;4992336;28;20036;-68
2022/11/25 11:21:27;;;;;;;4.78;1.80;;;;;;;16.94;61.21;100058.16;4993437;28;20034;-68
2022/11/25 11:23:54;;;;;;;3.92;1.70;;;;;;;16.92;61.16;100059.03;4993367;28;20046;-68
2022/11/25 11:26:25;;;;;;;4.95;1.80;;;;;;;16.95;61.12;100067.78;4992303;28;20053;-68
2022/11/25 11:28:59;;;;;;;3.75;1.80;;;;;;;16.96;61.27;100066.88;4993565;28;20022;-68
2022/11/25 11:31:34;;;;;;;3.80;1.80;;;;;;;16.94;61.02;100076.63;4993423;28;20148;-68
2022/11/25 11:34:13;;;;;;;4.47;1.80;;;;;;;16.96;60.96;100077.41;4993407;28;20115;-67
2022/11/25 11:36:51;;;;;;;4.18;1.80;;;;;;;16.92;61.00;100080.13;4993403;28;20026;-68
2022/11/25 11:39:35;;;;;;;5.50;1.95;;;;;;;16.92;61.20;100074.03;4991795;28;20022;-68
2022/11/25 11:42:32;;;;;;;3.83;1.95;;;;;;;16.92;61.25;100080.13;4993105;28;20042;-67
2022/11/25 11:45:24;;;;;;;4.55;1.88;;;;;;;16.91;61.14;100065.25;4992965;28;20038;-68
2022/11/25 11:47:55;;;;;;;3.97;1.98;;;;;;;16.90;60.84;100071.44;4993255;28;20438;-68
2022/11/25 11:50:32;;;;;;;4.55;1.85;;;;;;;16.89;61.18;100067.06;4993205;28;20029;-68
2022/11/25 11:53:11;;;;;;;3.70;1.85;;;;;;;16.90;61.25;100063.53;4993218;28;20034;-68